Time;durP1;ratioP1;P1;durP2;ratioP2;P2;SDS_P1;SDS_P2;PMS_P1;PMS_P2;Temp;Humidity;BMP_temperature;BMP_pressure;BME280_temperature;BME280_humidity;BME280_pressure;Samples;Min_cycle;Max_cycle;Signal;HPM_P1;HPM_P2
2022/02/07 00:01:20;;;;;;;13.23;1.60;;;;;;;1.00;100.00;99557.31;4993709;28;20038;-75
2022/02/07 00:03:55;;;;;;;13.93;1.58;;;;;;;0.91;100.00;99562.25;4958803;28;20080;-76
2022/02/07 00:06:21;;;;;;;11.43;1.40;;;;;;;0.73;100.00;99564.41;4981542;28;20035;-75
2022/02/07 00:08:46;;;;;;;9.48;1.52;;;;;;;0.74;100.00;99567.84;4963523;28;20049;-75
2022/02/07 00:11:13;;;;;;;12.77;1.98;;;;;;;0.70;100.00;99584.50;4987170;28;20061;-75
2022/02/07 00:13:39;;;;;;;17.85;1.80;;;;;;;0.57;100.00;99582.78;4962026;28;20100;-75
2022/02/07 00:16:06;;;;;;;11.00;1.52;;;;;;;0.74;100.00;99588.50;4982505;28;20030;-75
2022/02/07 00:18:33;;;;;;;14.20;1.60;;;;;;;0.98;100.00;99593.63;4983305;28;20085;-75
2022/02/07 00:20:59;;;;;;;16.98;1.40;;;;;;;0.92;100.00;99605.22;4982207;28;20134;-75
2022/02/07 00:23:26;;;;;;;9.10;1.10;;;;;;;0.96;100.00;99608.38;4977430;28;20066;-75
2022/02/07 00:25:52;;;;;;;10.38;1.40;;;;;;;0.97;100.00;99623.75;4983196;28;20034;-75
2022/02/07 00:28:18;;;;;;;8.65;1.10;;;;;;;0.99;100.00;99628.81;4957274;28;20076;-75
2022/02/07 00:30:44;;;;;;;13.10;1.50;;;;;;;0.92;100.00;99631.03;4967888;28;20038;-74
2022/02/07 00:33:09;;;;;;;14.50;1.30;;;;;;;1.11;100.00;99633.09;4990875;28;20422;-75
2022/02/07 00:35:35;;;;;;;23.48;1.77;;;;;;;1.33;100.00;99641.81;4988241;28;20042;-75
2022/02/07 00:38:07;;;;;;;9.55;1.20;;;;;;;1.34;100.00;99639.13;4969283;28;20049;-75
2022/02/07 00:46:03;;;;;;;11.25;1.23;;;;;;;1.21;100.00;99674.56;4965869;28;20038;-75
2022/02/07 00:48:29;;;;;;;14.48;1.70;;;;;;;1.07;100.00;99687.66;4970094;28;20034;-76
2022/02/07 00:50:56;;;;;;;9.90;1.65;;;;;;;1.06;100.00;99688.59;4963415;28;20042;-75
2022/02/07 00:53:25;;;;;;;7.72;0.90;;;;;;;1.02;100.00;99690.59;4964289;28;20030;-75
2022/02/07 00:55:52;;;;;;;12.23;1.48;;;;;;;1.00;100.00;99709.69;4969260;28;20165;-75
2022/02/07 00:58:18;;;;;;;11.60;1.55;;;;;;;0.95;100.00;99712.59;4953412;28;20760;-75
2022/02/07 01:00:44;;;;;;;14.23;1.38;;;;;;;1.05;100.00;99729.06;4959100;28;20089;-75
2022/02/07 01:03:10;;;;;;;11.65;1.77;;;;;;;0.94;100.00;99747.94;4980579;28;20480;-75
2022/02/07 01:05:37;;;;;;;12.10;1.50;;;;;;;1.01;100.00;99768.16;4957276;28;20022;-76
2022/02/07 01:08:09;;;;;;;10.63;1.30;;;;;;;1.02;100.00;99782.69;4989728;28;20034;-74
2022/02/07 01:10:50;;;;;;;7.57;1.17;;;;;;;1.04;100.00;99788.63;4981412;28;20736;-75
2022/02/07 01:13:30;;;;;;;14.32;1.95;;;;;;;0.97;100.00;99780.47;4998336;28;20073;-75
2022/02/07 01:16:12;;;;;;;12.35;2.22;;;;;;;0.71;100.00;99783.09;4968966;28;20551;-75
2022/02/07 01:19:16;;;;;;;12.07;2.15;;;;;;;0.43;100.00;99789.34;4980483;28;20077;-75
2022/02/07 01:22:08;;;;;;;12.60;1.80;;;;;;;0.45;100.00;99789.25;4979109;28;20391;-75
2022/02/07 01:50:18;;;;;;;19.45;2.08;;;;;;;0.65;100.00;99855.00;4970180;28;20038;-75
2022/02/07 01:52:53;;;;;;;13.30;1.65;;;;;;;0.75;100.00;99863.75;4994675;28;20557;-75
2022/02/07 01:57:56;;;;;;;18.17;2.00;;;;;;;0.86;100.00;99871.56;4966791;28;20132;-74
2022/02/07 02:00:27;;;;;;;15.82;1.65;;;;;;;0.88;100.00;99885.19;4946021;28;20035;-76
2022/02/07 02:02:56;;;;;;;17.50;2.00;;;;;;;0.94;100.00;99889.97;4969500;28;20050;-75
2022/02/07 02:05:36;;;;;;;26.35;2.38;;;;;;;0.88;100.00;99892.94;4980465;28;20089;-75
2022/02/07 02:08:15;;;;;;;22.27;2.20;;;;;;;0.84;100.00;99899.25;4958581;28;20140;-75
2022/02/07 02:10:45;;;;;;;22.52;2.03;;;;;;;0.84;100.00;99894.09;4952933;28;20038;-75
2022/02/07 02:13:20;;;;;;;;;;;;;;;0.75;100.00;99899.88;4956814;28;20097;-75
2022/02/07 02:16:00;;;;;;;27.25;2.92;;;;;;;0.60;100.00;99906.91;4982664;28;20228;-75
2022/02/07 02:45:38;;;;;;;24.20;2.30;;;;;;;0.64;100.00;99964.31;4971651;28;20288;-75
2022/02/07 02:48:24;;;;;;;21.73;2.67;;;;;;;0.65;100.00;99971.13;4958199;28;20620;-75
2022/02/07 02:50:54;;;;;;;22.77;2.15;;;;;;;0.77;100.00;99973.72;4960736;28;20487;-75
2022/02/07 02:53:21;;;;;;;18.33;2.00;;;;;;;0.90;100.00;99976.28;4961332;28;20034;-75
2022/02/07 02:55:50;;;;;;;22.65;2.53;;;;;;;0.85;100.00;99985.28;4982636;28;20092;-75
2022/02/07 02:58:19;;;;;;;22.55;2.25;;;;;;;0.78;100.00;99987.47;4966366;28;20834;-74
2022/02/07 03:00:50;;;;;;;23.40;2.85;;;;;;;0.66;100.00;99993.41;4949085;28;20404;-75
2022/02/07 03:03:34;;;;;;;13.45;2.00;;;;;;;0.48;100.00;100003.22;4966721;28;20058;-75
2022/02/07 03:06:00;;;;;;;17.65;2.10;;;;;;;0.41;100.00;100012.28;4981641;28;20073;-75
2022/02/07 03:08:28;;;;;;;15.00;2.80;;;;;;;0.36;100.00;100021.13;4958562;28;20038;-75
2022/02/07 03:11:03;;;;;;;17.73;1.92;;;;;;;0.50;100.00;100020.25;4968957;28;20193;-74
2022/02/07 03:18:40;;;;;;;16.02;2.30;;;;;;;0.38;100.00;100052.00;4983773;28;20030;-74
2022/02/07 03:21:08;;;;;;;20.98;1.70;;;;;;;0.38;100.00;100052.00;4969152;28;20042;-75
2022/02/07 03:23:34;;;;;;;16.25;1.65;;;;;;;0.33;100.00;100067.75;4974110;28;20038;-75
2022/02/07 03:26:01;;;;;;;16.85;1.58;;;;;;;0.04;100.00;100079.94;4978815;28;20039;-75
2022/02/07 03:28:28;;;;;;;13.48;1.58;;;;;;;-0.02;100.00;100095.75;4985436;28;20042;-74
2022/02/07 03:30:54;;;;;;;14.30;2.03;;;;;;;0.05;100.00;100096.22;4983084;28;20035;-75
2022/02/07 03:33:21;;;;;;;16.20;1.50;;;;;;;0.20;100.00;100108.16;4978693;28;20149;-75
2022/02/07 03:35:48;;;;;;;16.05;1.75;;;;;;;0.38;100.00;100108.75;4994464;28;20085;-74
2022/02/07 03:38:15;;;;;;;11.93;1.33;;;;;;;0.30;100.00;100134.19;4982166;28;20514;-75
2022/02/07 03:40:42;;;;;;;18.75;2.10;;;;;;;0.38;100.00;100130.22;4963771;28;20041;-74
2022/02/07 03:43:08;;;;;;;11.35;1.15;;;;;;;0.49;100.00;100142.47;4982409;28;20092;-75
2022/02/07 03:45:34;;;;;;;8.05;1.20;;;;;;;0.60;100.00;100165.00;4986697;28;20077;-74
2022/02/07 03:48:08;;;;;;;17.08;1.27;;;;;;;0.64;100.00;100173.38;4973880;28;20088;-74
2022/02/07 03:50:36;;;;;;;17.85;1.45;;;;;;;0.69;100.00;100182.47;4984905;28;20057;-75
2022/02/07 03:53:03;;;;;;;12.73;1.70;;;;;;;0.83;100.00;100202.28;4960865;28;20042;-75
2022/02/07 03:55:34;;;;;;;16.58;2.42;;;;;;;0.87;100.00;100205.50;4986948;28;20568;-75
2022/02/07 03:58:04;;;;;;;14.90;1.75;;;;;;;0.88;100.00;100205.38;4986484;28;20431;-75
2022/02/07 04:00:29;;;;;;;12.73;2.08;;;;;;;0.98;100.00;100213.41;4989114;28;20038;-75
2022/02/07 04:03:13;;;;;;;19.33;1.83;;;;;;;0.88;100.00;100225.22;4989599;28;20437;-75
2022/02/07 04:06:00;;;;;;;16.67;1.80;;;;;;;0.76;100.00;100225.06;4956888;28;20046;-75
2022/02/07 04:08:37;;;;;;;16.45;1.52;;;;;;;0.80;100.00;100242.97;4967467;28;20510;-74
2022/02/07 04:13:50;;;;;;;18.13;1.80;;;;;;;0.77;100.00;100269.78;4986843;28;20034;-75
2022/02/07 04:16:16;;;;;;;19.92;1.88;;;;;;;0.72;100.00;100271.84;4968231;28;20041;-75
2022/02/07 04:18:54;;;;;;;10.45;1.40;;;;;;;0.73;100.00;100282.03;4975161;28;20050;-75
2022/02/07 04:21:22;;;;;;;20.35;1.63;;;;;;;0.74;100.00;100296.63;4982631;28;20031;-74
2022/02/07 04:23:49;;;;;;;12.73;2.00;;;;;;;0.74;100.00;100301.78;4984892;28;20472;-75
2022/02/07 04:26:21;;;;;;;18.08;1.60;;;;;;;0.65;100.00;100324.75;4969970;28;20038;-74
2022/02/07 04:28:47;;;;;;;19.40;1.90;;;;;;;0.62;100.00;100324.94;4993044;23;20049;-76
2022/02/07 04:31:13;;;;;;;18.52;1.85;;;;;;;0.55;100.00;100333.06;4983969;28;20134;-74
2022/02/07 04:33:41;;;;;;;14.77;1.48;;;;;;;0.51;100.00;100346.22;4962693;28;20022;-77
2022/02/07 04:36:07;;;;;;;19.38;2.08;;;;;;;0.67;100.00;100362.44;4985922;28;20134;-77
2022/02/07 04:38:33;;;;;;;18.60;1.63;;;;;;;0.51;100.00;100367.72;4975644;28;20492;-78
2022/02/07 04:41:00;;;;;;;8.63;1.70;;;;;;;0.47;100.00;100375.72;4979743;28;20081;-78
2022/02/07 04:43:26;;;;;;;17.67;2.05;;;;;;;0.63;100.00;100371.31;4983755;28;20062;-78
2022/02/07 04:46:03;;;;;;;16.70;1.50;;;;;;;0.64;100.00;100387.63;4973281;28;20030;-76
2022/02/07 04:59:21;;;;;;;13.82;1.42;;;;;;;0.61;100.00;100418.78;4990233;28;20108;-75
2022/02/07 05:01:53;;;;;;;11.98;0.85;;;;;;;0.52;100.00;100426.13;4970115;28;20030;-76
2022/02/07 05:04:34;;;;;;;14.38;1.30;;;;;;;0.64;100.00;100437.50;4957293;28;20077;-75
2022/02/07 05:15:16;;;;;;;13.13;1.85;;;;;;;0.72;100.00;100455.13;4969071;28;20115;-76
2022/02/07 05:17:42;;;;;;;12.15;1.88;;;;;;;0.78;100.00;100465.09;4968901;28;20134;-75
2022/02/07 05:20:36;;;;;;;9.90;1.40;;;;;;;0.83;100.00;100481.16;4974683;28;20084;-75
2022/02/07 05:23:29;;;;;;;10.03;1.30;;;;;;;1.02;100.00;100472.28;4971122;28;20125;-76
2022/02/07 05:26:03;;;;;;;16.10;1.80;;;;;;;1.17;100.00;100497.22;4969386;28;20363;-75
2022/02/07 05:28:35;;;;;;;19.10;2.30;;;;;;;1.19;100.00;100491.94;4987779;28;20062;-76
2022/02/07 05:31:12;;;;;;;13.68;1.63;;;;;;;1.15;100.00;100499.06;4981255;28;20129;-76
2022/02/07 05:33:53;;;;;;;12.82;1.30;;;;;;;1.22;100.00;100491.75;4953677;28;20066;-76
2022/02/07 05:36:43;;;;;;;21.77;1.88;;;;;;;1.10;100.00;100508.84;4970740;28;20533;-75
2022/02/07 05:39:34;;;;;;;20.80;2.17;;;;;;;1.10;100.00;100517.41;4989973;28;20097;-76
2022/02/07 05:42:39;;;;;;;16.67;2.40;;;;;;;1.05;100.00;100524.59;4965658;28;20042;-75
2022/02/07 05:45:26;;;;;;;20.20;2.05;;;;;;;1.13;100.00;100531.88;4974240;28;20066;-76
2022/02/07 05:48:27;;;;;;;19.63;2.10;;;;;;;1.09;100.00;100546.78;4987349;28;20125;-76
2022/02/07 05:51:22;;;;;;;29.48;2.45;;;;;;;1.11;100.00;100551.81;4969357;28;20042;-75
2022/02/07 05:54:07;;;;;;;20.70;2.55;;;;;;;1.06;100.00;100567.59;4979299;28;21629;-76
2022/02/07 05:56:53;;;;;;;16.48;1.63;;;;;;;1.12;100.00;100575.00;4980964;28;20042;-75
2022/02/07 05:59:42;;;;;;;32.50;3.28;;;;;;;1.07;100.00;100577.00;4970822;28;20409;-76
2022/02/07 06:02:31;;;;;;;24.88;2.38;;;;;;;1.03;100.00;100578.09;4979734;28;20089;-75
2022/02/07 06:05:05;;;;;;;18.65;2.20;;;;;;;0.99;100.00;100591.31;4991775;28;20049;-75
2022/02/07 06:07:31;;;;;;;28.70;2.45;;;;;;;1.03;100.00;100592.78;4944634;28;20090;-75
2022/02/07 06:09:57;;;;;;;24.70;2.88;;;;;;;0.97;100.00;100599.13;4930090;28;20480;-76
2022/02/07 06:12:22;;;;;;;24.20;2.58;;;;;;;0.95;100.00;100606.97;4945975;28;20035;-76
2022/02/07 06:14:48;;;;;;;18.95;2.97;;;;;;;0.99;100.00;100610.19;4946205;28;20074;-76
2022/02/07 06:17:16;;;;;;;23.10;2.55;;;;;;;0.91;100.00;100613.22;4964244;28;20041;-75
2022/02/07 06:19:42;;;;;;;26.85;3.38;;;;;;;1.16;100.00;100629.91;4963250;28;20042;-76
2022/02/07 06:22:08;;;;;;;18.45;2.45;;;;;;;1.24;100.00;100637.19;4950725;28;20102;-75
2022/02/07 06:24:36;;;;;;;27.02;2.88;;;;;;;1.14;100.00;100650.66;4950034;28;20150;-76
2022/02/07 06:27:03;;;;;;;19.08;2.30;;;;;;;1.05;100.00;100650.34;4934338;28;20042;-78
2022/02/07 06:29:30;;;;;;;30.90;2.55;;;;;;;1.02;100.00;100663.44;4952955;28;20455;-77
2022/02/07 06:31:58;;;;;;;32.13;2.58;;;;;;;1.11;100.00;100676.69;4942005;28;20067;-76
2022/02/07 06:34:24;;;;;;;25.38;2.90;;;;;;;1.12;100.00;100674.91;4959143;28;20594;-78
2022/02/07 06:36:50;;;;;;;20.63;2.65;;;;;;;1.13;100.00;100681.72;4945083;28;20062;-75
2022/02/07 06:39:18;;;;;;;33.85;4.15;;;;;;;1.28;100.00;100695.53;4950229;28;20042;-77
2022/02/07 06:41:47;;;;;;;32.38;3.25;;;;;;;1.40;100.00;100717.28;4948559;28;20035;-77
2022/02/07 06:44:14;;;;;;;29.30;4.05;;;;;;;1.52;100.00;100712.22;4943925;28;20035;-76
2022/02/07 06:46:40;;;;;;;28.35;3.00;;;;;;;1.48;100.00;100720.25;4960038;28;20035;-76
2022/02/07 06:49:06;;;;;;;36.35;3.55;;;;;;;1.55;100.00;100726.72;4951318;28;20047;-76
2022/02/07 06:51:33;;;;;;;25.67;2.50;;;;;;;1.71;100.00;100734.41;4934344;28;20460;-75
2022/02/07 06:53:59;;;;;;;27.30;3.05;;;;;;;1.78;100.00;100735.72;4938773;28;20039;-76
2022/02/07 06:56:26;;;;;;;26.00;2.38;;;;;;;1.89;100.00;100725.59;4932799;28;20392;-76
2022/02/07 06:58:53;;;;;;;31.17;2.75;;;;;;;1.90;100.00;100749.69;4938662;28;20043;-76
2022/02/07 07:01:22;;;;;;;27.27;3.97;;;;;;;1.79;100.00;100760.69;4932574;28;20038;-75
2022/02/07 07:03:48;;;;;;;28.40;2.90;;;;;;;1.80;100.00;100762.31;4933741;28;20046;-76
2022/02/07 07:06:15;;;;;;;37.95;3.85;;;;;;;1.75;100.00;100767.78;4951635;28;20035;-76
2022/02/07 07:08:51;;;;;;;25.92;2.92;;;;;;;1.92;100.00;100782.31;4940626;28;20039;-76
2022/02/07 07:11:20;;;;;;;26.35;2.80;;;;;;;1.73;100.00;100794.63;4949360;28;20554;-76
2022/02/07 07:13:54;;;;;;;33.92;3.88;;;;;;;1.70;100.00;100780.13;4937412;28;20500;-76
2022/02/07 07:19:04;;;;;;;42.03;3.80;;;;;;;1.79;100.00;100801.22;4981326;28;20561;-76
2022/02/07 07:21:32;;;;;;;35.95;4.15;;;;;;;1.77;100.00;100798.69;4946127;28;20031;-77
2022/02/07 07:24:00;;;;;;;26.90;3.53;;;;;;;1.78;100.00;100808.13;4942157;28;20043;-77
2022/02/07 07:26:30;;;;;;;27.52;3.83;;;;;;;1.82;100.00;100801.88;4955921;28;20038;-76
2022/02/07 07:28:57;;;;;;;27.00;3.30;;;;;;;1.87;100.00;100819.72;4965609;28;20039;-76
2022/02/07 07:31:26;;;;;;;33.83;3.90;;;;;;;1.71;100.00;100824.94;4963857;28;20093;-75
2022/02/07 07:33:53;;;;;;;35.75;4.35;;;;;;;1.52;100.00;100825.13;4952460;28;20496;-77
2022/02/07 07:36:22;;;;;;;29.40;4.22;;;;;;;1.68;100.00;100828.53;4937069;28;20041;-76
2022/02/07 07:38:49;;;;;;;30.55;3.85;;;;;;;1.58;100.00;100854.97;4963866;28;20051;-76
2022/02/07 07:41:20;;;;;;;29.13;3.20;;;;;;;1.63;100.00;100864.16;4953435;28;20041;-76
2022/02/07 07:43:56;;;;;;;31.52;4.88;;;;;;;1.69;100.00;100871.56;4964735;28;20093;-76
2022/02/07 07:46:45;;;;;;;28.38;3.60;;;;;;;1.93;100.00;100878.84;4945656;28;20061;-75
2022/02/07 07:49:31;;;;;;;41.25;4.50;;;;;;;1.93;100.00;100886.63;4950043;28;20043;-76
2022/02/07 07:52:12;;;;;;;33.17;4.50;;;;;;;1.87;100.00;100887.81;4938866;28;20178;-77
2022/02/07 07:55:23;;;;;;;45.55;4.25;;;;;;;1.93;100.00;100894.38;4962722;28;20050;-76
2022/02/07 08:03:15;;;;;;;24.85;3.30;;;;;;;2.17;100.00;100914.59;4970957;28;20042;-77
2022/02/07 08:05:53;;;;;;;26.98;4.13;;;;;;;2.35;100.00;100905.75;4933317;28;20031;-76
2022/02/07 08:08:39;;;;;;;31.35;3.67;;;;;;;2.48;100.00;100918.84;4949338;28;20773;-77
2022/02/07 08:11:10;;;;;;;34.83;4.50;;;;;;;2.49;100.00;100918.75;4955601;28;20063;-76
2022/02/07 08:13:42;;;;;;;30.05;4.28;;;;;;;2.52;100.00;100920.31;4945993;28;20043;-75
2022/02/07 08:16:22;;;;;;;27.77;3.80;;;;;;;2.56;100.00;100934.75;4953371;28;20049;-76
2022/02/07 08:18:48;;;;;;;36.17;3.75;;;;;;;2.68;100.00;100943.56;4936846;28;20043;-77
2022/02/07 08:21:14;;;;;;;32.47;4.55;;;;;;;2.59;100.00;100959.63;4955584;28;20464;-77
2022/02/07 08:23:40;;;;;;;29.45;3.95;;;;;;;2.51;100.00;100960.09;4955021;28;20039;-76
2022/02/07 08:26:07;;;;;;;42.08;4.50;;;;;;;2.54;100.00;100972.84;4952330;28;20065;-76
2022/02/07 08:28:33;;;;;;;32.03;4.78;;;;;;;2.61;100.00;100979.34;4932332;28;20035;-76
2022/02/07 08:30:59;;;;;;;28.23;4.15;;;;;;;2.56;100.00;100980.53;4977485;28;20031;-77
2022/02/07 08:33:25;;;;;;;37.08;4.30;;;;;;;2.63;100.00;100992.19;4951596;28;20035;-77
2022/02/07 08:35:51;;;;;;;35.65;4.25;;;;;;;2.65;100.00;100990.34;4946820;28;20071;-76
2022/02/07 08:38:18;;;;;;;33.25;4.78;;;;;;;2.78;100.00;101021.56;4953590;28;20101;-75
2022/02/07 08:40:43;;;;;;;30.25;3.95;;;;;;;2.92;100.00;101021.59;4950400;28;20069;-77
2022/02/07 08:43:10;;;;;;;36.85;4.25;;;;;;;2.94;100.00;101027.53;4965464;28;20074;-76
2022/02/07 08:45:36;;;;;;;28.27;4.50;;;;;;;2.94;100.00;101040.47;4935649;28;20129;-76
2022/02/07 08:48:02;;;;;;;26.85;3.83;;;;;;;3.00;100.00;101049.66;4966882;28;20043;-77
2022/02/07 08:50:29;;;;;;;39.78;4.53;;;;;;;3.09;100.00;101055.13;4950708;28;20456;-75
2022/02/07 08:52:57;;;;;;;29.92;4.53;;;;;;;3.13;100.00;101071.34;4963264;28;20093;-76
2022/02/07 08:55:33;;;;;;;34.05;4.32;;;;;;;3.20;100.00;101067.47;4951784;28;20035;-77
2022/02/07 08:58:09;;;;;;;36.67;4.85;;;;;;;3.11;100.00;101070.59;4950075;28;20094;-77
2022/02/07 09:01:00;;;;;;;30.05;4.68;;;;;;;3.20;100.00;101088.19;4954465;28;20028;-76
2022/02/07 09:04:08;;;;;;;35.45;4.85;;;;;;;3.40;100.00;101086.16;4950337;28;20034;-77
2022/02/07 09:06:37;;;;;;;30.17;4.10;;;;;;;3.42;100.00;101082.53;4949078;28;20128;-75
2022/02/07 09:09:18;;;;;;;39.60;4.53;;;;;;;3.60;100.00;101097.91;4970048;28;20444;-76
2022/02/07 09:11:44;;;;;;;42.83;4.55;;;;;;;3.95;100.00;101108.75;4952781;28;20046;-76
2022/02/07 09:14:13;;;;;;;46.72;5.70;;;;;;;4.06;100.00;101103.72;4962657;28;20039;-77
2022/02/07 09:16:40;;;;;;;50.00;5.53;;;;;;;4.25;100.00;101121.59;4960615;28;20050;-76
2022/02/07 09:19:07;;;;;;;39.60;4.90;;;;;;;4.34;100.00;101127.16;4959756;28;20126;-76
2022/02/07 09:21:38;;;;;;;50.75;5.88;;;;;;;4.10;100.00;101148.50;4963665;28;20035;-76
2022/02/07 09:24:04;;;;;;;37.13;5.50;;;;;;;3.88;100.00;101162.81;4952944;28;20090;-77
2022/02/07 09:26:30;;;;;;;37.90;6.10;;;;;;;3.64;100.00;101167.72;4961654;28;20058;-77
2022/02/07 09:28:56;;;;;;;48.70;5.55;;;;;;;3.55;100.00;101188.16;4968734;28;20031;-77
2022/02/07 09:31:22;;;;;;;44.00;5.20;;;;;;;3.71;100.00;101188.91;4949773;28;20599;-76
2022/02/07 09:33:49;;;;;;;45.95;5.90;;;;;;;3.75;100.00;101189.56;4947288;28;21031;-76
2022/02/07 09:36:15;;;;;;;51.92;5.88;;;;;;;3.82;100.00;101183.91;4949814;28;20037;-77
2022/02/07 09:38:42;;;;;;;44.03;4.78;;;;;;;3.84;100.00;101189.88;4933859;28;20035;-75
2022/02/07 09:41:08;;;;;;;31.92;4.50;;;;;;;3.75;100.00;101205.13;4953514;28;20030;-76
2022/02/07 09:43:41;;;;;;;30.15;4.38;;;;;;;3.86;100.00;101213.97;4979054;28;20035;-75
2022/02/07 09:46:11;;;;;;;35.13;4.32;;;;;;;4.14;100.00;101203.69;4938728;28;20058;-75
2022/02/07 09:48:39;;;;;;;26.05;3.22;;;;;;;4.39;100.00;101213.38;4983394;28;20045;-77
2022/02/07 09:51:06;;;;;;;24.40;3.15;;;;;;;4.43;100.00;101226.09;4925740;28;20097;-77
2022/02/07 09:53:34;;;;;;;28.02;3.55;;;;;;;4.24;100.00;101225.56;4925861;29;20031;-76
2022/02/07 09:56:04;;;;;;;18.25;3.45;;;;;;;4.19;100.00;101243.19;4950728;28;20046;-76
2022/02/07 09:58:35;;;;;;;35.35;4.03;;;;;;;4.07;100.00;101252.56;4924166;29;20118;-77
2022/02/07 10:01:03;;;;;;;24.23;3.80;;;;;;;3.99;100.00;101250.38;4925835;28;20385;-76
2022/02/07 10:03:50;;;;;;;33.78;4.22;;;;;;;3.93;100.00;101266.34;4958867;28;20057;-76
2022/02/07 10:06:43;;;;;;;30.08;4.05;;;;;;;3.96;100.00;101275.72;4946188;28;20038;-75
2022/02/07 10:14:29;;;;;;;31.95;4.13;;;;;;;3.65;100.00;101287.88;4969735;28;20039;-77
2022/02/07 10:38:39;;;;;;;32.83;4.00;;;;;;;4.81;100.00;101320.81;4980938;28;20038;-78
2022/02/07 10:46:15;;;;;;;31.95;3.80;;;;;;;4.03;100.00;101328.94;4953608;28;20054;-78
2022/02/07 10:48:42;;;;;;;34.38;5.00;;;;;;;4.29;100.00;101340.38;4945059;28;20488;-77
2022/02/07 10:51:18;;;;;;;42.60;4.80;;;;;;;4.45;100.00;101342.91;4950225;28;20043;-77
2022/02/07 10:53:48;;;;;;;31.65;4.70;;;;;;;4.66;100.00;101326.00;4969047;28;20054;-77
2022/02/07 10:56:16;;;;;;;40.35;5.43;;;;;;;4.72;100.00;101340.38;4941806;28;20042;-78
2022/02/07 10:58:42;;;;;;;39.88;4.75;;;;;;;4.94;100.00;101326.09;4955918;28;20553;-77
2022/02/07 11:01:19;;;;;;;38.58;5.05;;;;;;;5.14;100.00;101351.69;4964100;28;20408;-76
2022/02/07 11:03:58;;;;;;;39.67;5.22;;;;;;;5.17;100.00;101350.63;4962204;28;20054;-77
2022/02/07 11:06:31;;;;;;;28.60;4.43;;;;;;;5.07;98.80;101352.97;4971971;28;20038;-76
2022/02/07 11:17:20;;;;;;;33.88;4.22;;;;;;;5.71;99.87;101387.06;4966471;28;20054;-78
2022/02/07 11:27:56;;;;;;;29.40;3.53;;;;;;;5.30;95.08;101402.72;4963993;28;20050;-77
2022/02/07 11:30:34;;;;;;;23.80;3.38;;;;;;;5.23;94.03;101410.06;4936917;28;20042;-77
2022/02/07 11:33:00;;;;;;;28.55;3.58;;;;;;;5.17;93.40;101413.06;4951831;28;20071;-77
2022/02/07 11:35:32;;;;;;;32.13;4.18;;;;;;;5.04;93.54;101400.78;4965640;28;20507;-77
2022/02/07 11:38:01;;;;;;;33.25;4.18;;;;;;;5.20;93.93;101405.06;4955164;28;20045;-78
2022/02/07 11:40:35;;;;;;;29.52;4.20;;;;;;;5.42;90.46;101415.78;4969236;28;20039;-76
2022/02/07 11:43:11;;;;;;;22.25;3.50;;;;;;;5.29;86.44;101419.25;4975173;28;20590;-78
2022/02/07 11:46:08;;;;;;;20.02;3.80;;;;;;;5.41;93.12;101415.91;4977818;28;20047;-77
2022/02/07 11:48:51;;;;;;;36.08;3.88;;;;;;;5.56;91.98;101429.72;4964207;28;20027;-77
2022/02/07 11:51:18;;;;;;;24.73;3.88;;;;;;;5.59;88.72;101430.31;4983818;23;20077;-76
2022/02/07 11:53:51;;;;;;;26.65;3.47;;;;;;;5.55;92.76;101433.22;4956816;28;20034;-75
2022/02/07 11:56:48;;;;;;;29.08;4.03;;;;;;;5.60;88.90;101444.19;4976545;28;20061;-76
2022/02/07 11:59:38;;;;;;;28.95;3.95;;;;;;;5.87;87.28;101465.00;4975491;28;20069;-76
2022/02/07 12:02:19;;;;;;;28.52;4.32;;;;;;;5.99;88.39;101466.03;4968882;28;20060;-76
2022/02/07 12:04:44;;;;;;;26.63;3.95;;;;;;;5.91;87.21;101474.28;4966795;28;20035;-76
2022/02/07 12:07:20;;;;;;;29.00;3.97;;;;;;;5.98;89.20;101472.19;4947133;28;20061;-76
2022/02/07 12:15:07;;;;;;;21.13;3.08;;;;;;;5.84;87.90;101486.88;4948683;28;20073;-75
2022/02/07 12:17:45;;;;;;;18.83;2.80;;;;;;;5.71;89.99;101501.63;4962849;28;20035;-75
2022/02/07 12:20:15;;;;;;;21.35;3.22;;;;;;;5.72;88.00;101500.66;4952413;28;20046;-75
2022/02/07 12:22:54;;;;;;;18.48;3.13;;;;;;;5.85;87.42;101516.34;4947629;28;20028;-75
2022/02/07 12:25:44;;;;;;;26.23;4.22;;;;;;;5.85;90.15;101511.97;4968367;28;20043;-76
2022/02/07 12:28:19;;;;;;;22.02;2.70;;;;;;;5.88;85.49;101497.09;4979268;28;20716;-76
2022/02/07 12:30:59;;;;;;;21.83;3.60;;;;;;;5.82;86.30;101514.78;4948702;28;20035;-75
2022/02/07 12:33:25;;;;;;;26.35;3.42;;;;;;;5.72;91.64;101505.03;4934022;28;20094;-75
2022/02/07 12:35:53;;;;;;;18.58;3.10;;;;;;;5.88;87.96;101503.16;4966658;28;20145;-75
2022/02/07 12:38:19;;;;;;;24.52;4.18;;;;;;;5.89;88.99;101489.19;4964942;28;20512;-76
2022/02/07 12:40:45;;;;;;;24.15;3.40;;;;;;;5.96;89.94;101497.50;4963779;28;20049;-75
2022/02/07 12:43:12;;;;;;;24.40;3.47;;;;;;;6.09;87.44;101507.97;4953327;28;20030;-75
2022/02/07 12:45:42;;;;;;;30.25;3.88;;;;;;;6.27;85.09;101503.31;4963896;28;20046;-75
2022/02/07 12:48:13;;;;;;;34.58;3.78;;;;;;;6.23;83.71;101507.88;4953743;28;20740;-74
2022/02/07 12:50:48;;;;;;;29.00;4.20;;;;;;;6.35;87.80;101491.47;4961672;28;20047;-75
2022/02/07 12:53:19;;;;;;;25.15;3.20;;;;;;;6.43;84.09;101514.41;4962562;28;20112;-75
2022/02/07 12:55:47;;;;;;;30.88;3.83;;;;;;;6.62;84.75;101509.66;4955274;28;20050;-75
2022/02/07 12:58:13;;;;;;;27.00;3.85;;;;;;;6.68;85.76;101511.00;4947553;28;20061;-75
2022/02/07 13:00:38;;;;;;;28.48;3.78;;;;;;;6.76;85.71;101508.75;4947365;28;20489;-75
2022/02/07 13:03:05;;;;;;;23.95;3.05;;;;;;;6.99;83.55;101517.63;4965099;28;20043;-74
2022/02/07 13:05:31;;;;;;;23.20;3.35;;;;;;;6.97;83.36;101500.41;4948213;28;20039;-75
2022/02/07 13:08:00;;;;;;;33.95;4.32;;;;;;;7.26;82.19;101508.00;4956602;28;20226;-74
2022/02/07 13:10:33;;;;;;;25.33;3.97;;;;;;;6.85;80.31;101538.56;4955391;28;20119;-76
2022/02/07 13:15:34;;;;;;;21.67;2.53;;;;;;;4.17;100.00;101586.03;4957979;28;20042;-76
2022/02/07 13:18:04;;;;;;;;;;;;;;;3.52;100.00;101580.84;4953725;28;20042;-76
2022/02/07 13:20:30;;;;;;;18.08;2.10;;;;;;;3.15;100.00;101550.81;4958041;28;20455;-76
2022/02/07 13:23:14;;;;;;;14.48;1.88;;;;;;;3.18;100.00;101567.03;4963531;28;20037;-76
2022/02/07 13:25:53;;;;;;;17.58;2.92;;;;;;;3.31;100.00;101575.03;4950581;28;20540;-76
2022/02/07 13:28:24;;;;;;;22.92;2.63;;;;;;;5.11;100.00;101564.28;4954512;28;20039;-76
2022/02/07 13:30:55;;;;;;;13.15;2.33;;;;;;;6.10;100.00;101578.16;4951257;28;20569;-76
2022/02/07 13:33:22;;;;;;;14.32;2.83;;;;;;;6.92;99.37;101570.31;4947394;28;20030;-76
2022/02/07 13:35:51;;;;;;;18.02;3.38;;;;;;;7.21;94.28;101574.41;4964832;28;20066;-76
2022/02/07 13:38:19;;;;;;;17.58;2.40;;;;;;;7.26;89.83;101594.13;4930277;28;20031;-76
2022/02/07 13:40:47;;;;;;;15.70;2.88;;;;;;;7.34;88.97;101607.47;4964404;28;20035;-76
2022/02/07 13:43:26;;;;;;;14.00;2.33;;;;;;;7.57;90.46;101604.13;4967682;28;20448;-77
2022/02/07 13:46:03;;;;;;;17.35;2.60;;;;;;;8.04;85.96;101609.56;4957993;28;20502;-77
2022/02/07 13:48:31;;;;;;;14.95;2.38;;;;;;;8.00;82.46;101623.78;4960543;28;20031;-76
2022/02/07 13:50:58;;;;;;;19.17;2.92;;;;;;;7.82;83.59;101625.06;4972184;28;20113;-77
2022/02/07 13:53:25;;;;;;;14.95;2.35;;;;;;;7.84;83.10;101618.00;4934562;28;20110;-77
2022/02/07 13:55:54;;;;;;;14.35;2.70;;;;;;;7.69;84.25;101618.09;4966894;28;20043;-76
2022/02/07 13:58:41;;;;;;;24.83;3.85;;;;;;;7.62;86.94;101635.13;4963626;28;20042;-76
2022/02/07 14:01:14;;;;;;;17.90;3.00;;;;;;;7.77;84.50;101630.63;4962884;28;20488;-74
2022/02/07 14:03:44;;;;;;;16.70;3.28;;;;;;;7.73;84.57;101631.78;4939573;28;20043;-75
2022/02/07 14:06:10;;;;;;;15.05;2.60;;;;;;;7.43;84.24;101640.78;4939723;28;20046;-75
2022/02/07 14:08:47;;;;;;;15.88;2.80;;;;;;;7.63;84.42;101641.19;4956900;28;20039;-74
2022/02/07 14:11:17;;;;;;;16.45;3.10;;;;;;;7.34;82.12;101657.06;4977921;28;20814;-74
2022/02/07 14:13:44;;;;;;;14.15;2.50;;;;;;;7.36;84.08;101658.63;4978760;28;20069;-75
2022/02/07 14:16:12;;;;;;;22.55;2.83;;;;;;;6.88;88.36;101653.13;4967669;28;20046;-75